sensor_id;sensor_type;location;lat;lon;timestamp;P1;durP1;ratioP1;P2;durP2;ratioP2
70052;SDS011;57398;52.032;4.376;2023-07-20T00:00:19;1.00;;;0.40;;
70052;SDS011;57398;52.032;4.376;2023-07-20T00:03:11;1.87;;;0.90;;
70052;SDS011;57398;52.032;4.376;2023-07-20T00:06:03;0.90;;;0.32;;
70052;SDS011;57398;52.032;4.376;2023-07-20T00:08:52;1.23;;;0.60;;
70052;SDS011;57398;52.032;4.376;2023-07-20T00:11:47;1.35;;;0.60;;
70052;SDS011;57398;52.032;4.376;2023-07-20T00:14:36;1.60;;;0.80;;
70052;SDS011;57398;52.032;4.376;2023-07-20T00:17:26;1.33;;;0.70;;
70052;SDS011;57398;52.032;4.376;2023-07-20T00:20:14;0.90;;;0.40;;
70052;SDS011;57398;52.032;4.376;2023-07-20T00:23:03;0.90;;;0.40;;
70052;SDS011;57398;52.032;4.376;2023-07-20T00:25:51;2.30;;;0.75;;
70052;SDS011;57398;52.032;4.376;2023-07-20T00:28:39;1.00;;;0.40;;
70052;SDS011;57398;52.032;4.376;2023-07-20T00:31:27;1.30;;;0.70;;
70052;SDS011;57398;52.032;4.376;2023-07-20T00:34:17;1.10;;;0.60;;
70052;SDS011;57398;52.032;4.376;2023-07-20T00:37:06;1.10;;;0.50;;
70052;SDS011;57398;52.032;4.376;2023-07-20T00:39:54;1.25;;;0.68;;
70052;SDS011;57398;52.032;4.376;2023-07-20T00:42:43;1.00;;;0.40;;
70052;SDS011;57398;52.032;4.376;2023-07-20T00:45:31;0.90;;;0.40;;
70052;SDS011;57398;52.032;4.376;2023-07-20T00:48:21;0.90;;;0.40;;
70052;SDS011;57398;52.032;4.376;2023-07-20T00:51:11;0.98;;;0.43;;
70052;SDS011;57398;52.032;4.376;2023-07-20T00:53:59;0.90;;;0.40;;
70052;SDS011;57398;52.032;4.376;2023-07-20T00:56:47;0.85;;;0.30;;
70052;SDS011;57398;52.032;4.376;2023-07-20T00:59:36;1.10;;;0.50;;
70052;SDS011;57398;52.032;4.376;2023-07-20T01:02:24;1.10;;;0.50;;
70052;SDS011;57398;52.032;4.376;2023-07-20T01:05:13;0.70;;;0.20;;
70052;SDS011;57398;52.032;4.376;2023-07-20T01:08:06;0.90;;;0.38;;
70052;SDS011;57398;52.032;4.376;2023-07-20T01:11:00;0.90;;;0.40;;
70052;SDS011;57398;52.032;4.376;2023-07-20T01:13:54;1.03;;;0.40;;
70052;SDS011;57398;52.032;4.376;2023-07-20T01:16:43;0.90;;;0.30;;
70052;SDS011;57398;52.032;4.376;2023-07-20T01:19:32;0.80;;;0.30;;
70052;SDS011;57398;52.032;4.376;2023-07-20T01:22:24;1.10;;;0.50;;
70052;SDS011;57398;52.032;4.376;2023-07-20T01:25:34;1.00;;;0.50;;
70052;SDS011;57398;52.032;4.376;2023-07-20T01:28:43;1.07;;;0.43;;
70052;SDS011;57398;52.032;4.376;2023-07-20T01:31:45;1.00;;;0.40;;
70052;SDS011;57398;52.032;4.376;2023-07-20T01:34:38;1.00;;;0.40;;
70052;SDS011;57398;52.032;4.376;2023-07-20T01:37:28;1.00;;;0.40;;
70052;SDS011;57398;52.032;4.376;2023-07-20T01:40:19;0.82;;;0.30;;
70052;SDS011;57398;52.032;4.376;2023-07-20T01:43:08;0.80;;;0.30;;
70052;SDS011;57398;52.032;4.376;2023-07-20T01:45:57;0.98;;;0.40;;
70052;SDS011;57398;52.032;4.376;2023-07-20T01:48:46;0.90;;;0.30;;
70052;SDS011;57398;52.032;4.376;2023-07-20T01:51:35;0.88;;;0.30;;
70052;SDS011;57398;52.032;4.376;2023-07-20T01:54:23;0.98;;;0.40;;
70052;SDS011;57398;52.032;4.376;2023-07-20T01:57:12;1.00;;;0.40;;
70052;SDS011;57398;52.032;4.376;2023-07-20T02:00:01;0.93;;;0.40;;
70052;SDS011;57398;52.032;4.376;2023-07-20T02:02:49;0.90;;;0.30;;
70052;SDS011;57398;52.032;4.376;2023-07-20T02:05:39;1.10;;;0.40;;
70052;SDS011;57398;52.032;4.376;2023-07-20T02:08:30;1.08;;;0.40;;
70052;SDS011;57398;52.032;4.376;2023-07-20T02:11:18;1.00;;;0.40;;
70052;SDS011;57398;52.032;4.376;2023-07-20T02:14:06;0.90;;;0.30;;
70052;SDS011;57398;52.032;4.376;2023-07-20T02:16:54;0.80;;;0.30;;
70052;SDS011;57398;52.032;4.376;2023-07-20T02:19:46;0.80;;;0.30;;
70052;SDS011;57398;52.032;4.376;2023-07-20T02:22:38;1.00;;;0.40;;
70052;SDS011;57398;52.032;4.376;2023-07-20T02:25:27;0.80;;;0.30;;
70052;SDS011;57398;52.032;4.376;2023-07-20T02:28:15;0.95;;;0.40;;
70052;SDS011;57398;52.032;4.376;2023-07-20T02:31:03;1.00;;;0.40;;
70052;SDS011;57398;52.032;4.376;2023-07-20T02:33:51;1.05;;;0.43;;
70052;SDS011;57398;52.032;4.376;2023-07-20T02:36:40;1.00;;;0.38;;
70052;SDS011;57398;52.032;4.376;2023-07-20T02:39:30;1.17;;;0.50;;
70052;SDS011;57398;52.032;4.376;2023-07-20T02:42:19;1.05;;;0.40;;
70052;SDS011;57398;52.032;4.376;2023-07-20T02:45:09;0.93;;;0.38;;
70052;SDS011;57398;52.032;4.376;2023-07-20T02:47:57;1.00;;;0.50;;
70052;SDS011;57398;52.032;4.376;2023-07-20T02:50:46;0.80;;;0.30;;
70052;SDS011;57398;52.032;4.376;2023-07-20T02:53:34;0.87;;;0.30;;
70052;SDS011;57398;52.032;4.376;2023-07-20T02:56:24;0.95;;;0.30;;
70052;SDS011;57398;52.032;4.376;2023-07-20T02:59:12;1.73;;;1.38;;
70052;SDS011;57398;52.032;4.376;2023-07-20T03:02:00;1.00;;;0.40;;
70052;SDS011;57398;52.032;4.376;2023-07-20T03:04:48;1.80;;;0.68;;
70052;SDS011;57398;52.032;4.376;2023-07-20T03:07:36;1.27;;;0.53;;
70052;SDS011;57398;52.032;4.376;2023-07-20T03:10:25;0.82;;;0.30;;
70052;SDS011;57398;52.032;4.376;2023-07-20T03:13:15;0.90;;;0.40;;
70052;SDS011;57398;52.032;4.376;2023-07-20T03:16:03;0.95;;;0.40;;
70052;SDS011;57398;52.032;4.376;2023-07-20T03:18:51;1.10;;;0.50;;
70052;SDS011;57398;52.032;4.376;2023-07-20T03:21:40;0.87;;;0.30;;
70052;SDS011;57398;52.032;4.376;2023-07-20T03:24:28;0.90;;;0.40;;
70052;SDS011;57398;52.032;4.376;2023-07-20T03:27:17;0.98;;;0.40;;
70052;SDS011;57398;52.032;4.376;2023-07-20T03:30:07;1.00;;;0.40;;
70052;SDS011;57398;52.032;4.376;2023-07-20T03:32:56;1.00;;;0.40;;
70052;SDS011;57398;52.032;4.376;2023-07-20T03:35:44;1.00;;;0.40;;
70052;SDS011;57398;52.032;4.376;2023-07-20T03:38:32;1.02;;;0.43;;
70052;SDS011;57398;52.032;4.376;2023-07-20T03:41:21;1.10;;;0.50;;
70052;SDS011;57398;52.032;4.376;2023-07-20T03:44:09;1.10;;;0.50;;
70052;SDS011;57398;52.032;4.376;2023-07-20T03:46:58;1.30;;;0.70;;
70052;SDS011;57398;52.032;4.376;2023-07-20T03:49:46;1.10;;;0.50;;
70052;SDS011;57398;52.032;4.376;2023-07-20T03:52:35;1.00;;;0.40;;
70052;SDS011;57398;52.032;4.376;2023-07-20T03:55:23;0.90;;;0.30;;
70052;SDS011;57398;52.032;4.376;2023-07-20T03:58:11;0.73;;;0.20;;
70052;SDS011;57398;52.032;4.376;2023-07-20T04:00:59;0.80;;;0.30;;
70052;SDS011;57398;52.032;4.376;2023-07-20T04:03:49;1.10;;;0.50;;
70052;SDS011;57398;52.032;4.376;2023-07-20T04:06:37;1.00;;;0.40;;
70052;SDS011;57398;52.032;4.376;2023-07-20T04:09:25;0.90;;;0.30;;
70052;SDS011;57398;52.032;4.376;2023-07-20T04:12:14;1.10;;;0.50;;
70052;SDS011;57398;52.032;4.376;2023-07-20T04:15:02;0.98;;;0.40;;
70052;SDS011;57398;52.032;4.376;2023-07-20T04:17:50;1.00;;;0.40;;
70052;SDS011;57398;52.032;4.376;2023-07-20T04:20:40;1.00;;;0.50;;
70052;SDS011;57398;52.032;4.376;2023-07-20T04:23:29;1.50;;;0.70;;
70052;SDS011;57398;52.032;4.376;2023-07-20T04:26:17;1.10;;;0.40;;
70052;SDS011;57398;52.032;4.376;2023-07-20T04:29:05;0.90;;;0.35;;
70052;SDS011;57398;52.032;4.376;2023-07-20T04:31:53;1.10;;;0.53;;
70052;SDS011;57398;52.032;4.376;2023-07-20T04:34:42;1.00;;;0.40;;
70052;SDS011;57398;52.032;4.376;2023-07-20T04:37:31;1.10;;;0.50;;
70052;SDS011;57398;52.032;4.376;2023-07-20T04:40:20;0.90;;;0.30;;
70052;SDS011;57398;52.032;4.376;2023-07-20T04:43:08;1.30;;;0.50;;
70052;SDS011;57398;52.032;4.376;2023-07-20T04:45:56;1.20;;;0.50;;
70052;SDS011;57398;52.032;4.376;2023-07-20T04:48:45;0.88;;;0.30;;
70052;SDS011;57398;52.032;4.376;2023-07-20T04:51:34;1.00;;;0.40;;
70052;SDS011;57398;52.032;4.376;2023-07-20T04:54:24;1.00;;;0.43;;
70052;SDS011;57398;52.032;4.376;2023-07-20T04:57:13;1.10;;;0.50;;
70052;SDS011;57398;52.032;4.376;2023-07-20T05:00:02;1.40;;;0.83;;
70052;SDS011;57398;52.032;4.376;2023-07-20T05:02:51;1.75;;;1.15;;
70052;SDS011;57398;52.032;4.376;2023-07-20T05:05:39;1.50;;;0.70;;
70052;SDS011;57398;52.032;4.376;2023-07-20T05:08:29;0.93;;;0.40;;
70052;SDS011;57398;52.032;4.376;2023-07-20T05:11:18;0.90;;;0.30;;
70052;SDS011;57398;52.032;4.376;2023-07-20T05:14:06;1.03;;;0.43;;
70052;SDS011;57398;52.032;4.376;2023-07-20T05:16:54;2.05;;;0.80;;
70052;SDS011;57398;52.032;4.376;2023-07-20T05:19:43;0.85;;;0.30;;
70052;SDS011;57398;52.032;4.376;2023-07-20T05:22:31;0.95;;;0.30;;
70052;SDS011;57398;52.032;4.376;2023-07-20T05:25:20;0.75;;;0.20;;
70052;SDS011;57398;52.032;4.376;2023-07-20T05:28:10;1.00;;;0.40;;
70052;SDS011;57398;52.032;4.376;2023-07-20T05:30:59;1.00;;;0.43;;
70052;SDS011;57398;52.032;4.376;2023-07-20T05:33:50;1.20;;;0.40;;
70052;SDS011;57398;52.032;4.376;2023-07-20T05:36:38;0.90;;;0.30;;
70052;SDS011;57398;52.032;4.376;2023-07-20T05:39:26;0.85;;;0.30;;
70052;SDS011;57398;52.032;4.376;2023-07-20T05:42:14;1.03;;;0.47;;
70052;SDS011;57398;52.032;4.376;2023-07-20T05:45:04;1.00;;;0.45;;
70052;SDS011;57398;52.032;4.376;2023-07-20T05:47:53;1.13;;;0.50;;
70052;SDS011;57398;52.032;4.376;2023-07-20T05:50:41;1.13;;;0.52;;
70052;SDS011;57398;52.032;4.376;2023-07-20T05:53:30;1.25;;;0.52;;
70052;SDS011;57398;52.032;4.376;2023-07-20T05:56:18;1.43;;;0.90;;
70052;SDS011;57398;52.032;4.376;2023-07-20T05:59:07;0.98;;;0.40;;
70052;SDS011;57398;52.032;4.376;2023-07-20T06:01:56;1.05;;;0.45;;
70052;SDS011;57398;52.032;4.376;2023-07-20T06:04:45;1.13;;;0.50;;
70052;SDS011;57398;52.032;4.376;2023-07-20T06:07:33;0.93;;;0.40;;
70052;SDS011;57398;52.032;4.376;2023-07-20T06:10:22;0.80;;;0.20;;
70052;SDS011;57398;52.032;4.376;2023-07-20T06:13:10;0.98;;;0.38;;
70052;SDS011;57398;52.032;4.376;2023-07-20T06:15:58;1.08;;;0.40;;
70052;SDS011;57398;52.032;4.376;2023-07-20T06:18:47;1.20;;;0.70;;
70052;SDS011;57398;52.032;4.376;2023-07-20T06:21:36;0.90;;;0.30;;
70052;SDS011;57398;52.032;4.376;2023-07-20T06:24:24;0.80;;;0.30;;
70052;SDS011;57398;52.032;4.376;2023-07-20T06:27:13;0.85;;;0.30;;
70052;SDS011;57398;52.032;4.376;2023-07-20T06:30:01;1.13;;;0.50;;
70052;SDS011;57398;52.032;4.376;2023-07-20T06:32:51;0.98;;;0.40;;
70052;SDS011;57398;52.032;4.376;2023-07-20T06:35:42;1.00;;;0.43;;
70052;SDS011;57398;52.032;4.376;2023-07-20T06:38:31;0.90;;;0.30;;
70052;SDS011;57398;52.032;4.376;2023-07-20T06:41:19;1.20;;;0.60;;
70052;SDS011;57398;52.032;4.376;2023-07-20T06:44:10;0.70;;;0.20;;
70052;SDS011;57398;52.032;4.376;2023-07-20T06:46:58;0.90;;;0.40;;
70052;SDS011;57398;52.032;4.376;2023-07-20T06:49:47;0.90;;;0.35;;
70052;SDS011;57398;52.032;4.376;2023-07-20T06:52:36;1.10;;;0.40;;
70052;SDS011;57398;52.032;4.376;2023-07-20T06:55:26;1.42;;;0.60;;
70052;SDS011;57398;52.032;4.376;2023-07-20T06:58:15;2.22;;;0.80;;
70052;SDS011;57398;52.032;4.376;2023-07-20T07:01:04;2.50;;;0.93;;
70052;SDS011;57398;52.032;4.376;2023-07-20T07:03:53;3.90;;;1.20;;
70052;SDS011;57398;52.032;4.376;2023-07-20T07:06:42;3.23;;;1.00;;
70052;SDS011;57398;52.032;4.376;2023-07-20T07:09:32;3.47;;;1.20;;
70052;SDS011;57398;52.032;4.376;2023-07-20T07:12:20;3.30;;;1.20;;
70052;SDS011;57398;52.032;4.376;2023-07-20T07:15:09;3.28;;;1.23;;
70052;SDS011;57398;52.032;4.376;2023-07-20T07:17:58;3.28;;;1.10;;
70052;SDS011;57398;52.032;4.376;2023-07-20T07:20:50;3.30;;;1.10;;
70052;SDS011;57398;52.032;4.376;2023-07-20T07:23:39;2.58;;;1.10;;
70052;SDS011;57398;52.032;4.376;2023-07-20T07:26:29;4.10;;;1.17;;
70052;SDS011;57398;52.032;4.376;2023-07-20T07:29:17;5.18;;;1.15;;
70052;SDS011;57398;52.032;4.376;2023-07-20T07:32:06;2.88;;;1.10;;
70052;SDS011;57398;52.032;4.376;2023-07-20T07:34:56;4.23;;;1.10;;
70052;SDS011;57398;52.032;4.376;2023-07-20T07:37:47;3.15;;;1.00;;
70052;SDS011;57398;52.032;4.376;2023-07-20T07:40:38;4.05;;;1.27;;
70052;SDS011;57398;52.032;4.376;2023-07-20T07:43:27;6.47;;;1.58;;
70052;SDS011;57398;52.032;4.376;2023-07-20T07:46:15;4.07;;;1.40;;
70052;SDS011;57398;52.032;4.376;2023-07-20T07:49:04;4.88;;;1.58;;
70052;SDS011;57398;52.032;4.376;2023-07-20T07:51:52;7.90;;;1.10;;
70052;SDS011;57398;52.032;4.376;2023-07-20T07:54:40;3.45;;;1.17;;
70052;SDS011;57398;52.032;4.376;2023-07-20T07:57:29;3.25;;;1.10;;
70052;SDS011;57398;52.032;4.376;2023-07-20T08:00:19;4.30;;;1.42;;
70052;SDS011;57398;52.032;4.376;2023-07-20T08:03:07;3.60;;;1.48;;
70052;SDS011;57398;52.032;4.376;2023-07-20T08:05:56;3.80;;;1.00;;
70052;SDS011;57398;52.032;4.376;2023-07-20T08:08:45;3.05;;;0.93;;
70052;SDS011;57398;52.032;4.376;2023-07-20T08:11:34;2.70;;;1.10;;
70052;SDS011;57398;52.032;4.376;2023-07-20T08:14:22;3.85;;;0.90;;
70052;SDS011;57398;52.032;4.376;2023-07-20T08:17:11;2.75;;;0.90;;
70052;SDS011;57398;52.032;4.376;2023-07-20T08:20:00;3.73;;;1.00;;
70052;SDS011;57398;52.032;4.376;2023-07-20T08:22:48;2.65;;;0.80;;
70052;SDS011;57398;52.032;4.376;2023-07-20T08:25:36;3.20;;;1.00;;
70052;SDS011;57398;52.032;4.376;2023-07-20T08:28:26;2.85;;;0.77;;
70052;SDS011;57398;52.032;4.376;2023-07-20T08:31:15;3.63;;;1.00;;
70052;SDS011;57398;52.032;4.376;2023-07-20T08:34:05;3.10;;;0.83;;
70052;SDS011;57398;52.032;4.376;2023-07-20T08:37:06;2.17;;;0.70;;
70052;SDS011;57398;52.032;4.376;2023-07-20T08:39:56;5.40;;;1.00;;
70052;SDS011;57398;52.032;4.376;2023-07-20T08:42:45;2.53;;;0.90;;
70052;SDS011;57398;52.032;4.376;2023-07-20T08:45:34;2.65;;;0.95;;
70052;SDS011;57398;52.032;4.376;2023-07-20T08:48:23;3.03;;;1.00;;
70052;SDS011;57398;52.032;4.376;2023-07-20T08:51:13;2.03;;;0.65;;
70052;SDS011;57398;52.032;4.376;2023-07-20T08:54:03;2.85;;;0.90;;
70052;SDS011;57398;52.032;4.376;2023-07-20T08:56:51;2.40;;;0.80;;
70052;SDS011;57398;52.032;4.376;2023-07-20T08:59:39;2.40;;;1.15;;
70052;SDS011;57398;52.032;4.376;2023-07-20T09:02:28;2.70;;;1.00;;
70052;SDS011;57398;52.032;4.376;2023-07-20T09:05:17;3.35;;;0.88;;
70052;SDS011;57398;52.032;4.376;2023-07-20T09:08:07;2.80;;;0.80;;
70052;SDS011;57398;52.032;4.376;2023-07-20T09:10:56;2.58;;;0.90;;
70052;SDS011;57398;52.032;4.376;2023-07-20T09:13:45;2.15;;;0.70;;
70052;SDS011;57398;52.032;4.376;2023-07-20T09:16:46;2.27;;;0.80;;
70052;SDS011;57398;52.032;4.376;2023-07-20T09:19:34;2.47;;;0.90;;
70052;SDS011;57398;52.032;4.376;2023-07-20T09:22:26;2.92;;;0.70;;
70052;SDS011;57398;52.032;4.376;2023-07-20T09:25:19;2.50;;;0.43;;
70052;SDS011;57398;52.032;4.376;2023-07-20T09:28:08;2.13;;;0.60;;
70052;SDS011;57398;52.032;4.376;2023-07-20T09:30:57;2.33;;;0.70;;
70052;SDS011;57398;52.032;4.376;2023-07-20T09:33:47;2.67;;;1.10;;
70052;SDS011;57398;52.032;4.376;2023-07-20T09:36:38;2.20;;;0.80;;
70052;SDS011;57398;52.032;4.376;2023-07-20T09:39:29;2.20;;;0.77;;
70052;SDS011;57398;52.032;4.376;2023-07-20T09:42:18;2.25;;;0.90;;
70052;SDS011;57398;52.032;4.376;2023-07-20T09:45:12;2.10;;;0.90;;
70052;SDS011;57398;52.032;4.376;2023-07-20T09:48:03;3.05;;;1.00;;
70052;SDS011;57398;52.032;4.376;2023-07-20T09:50:54;2.30;;;0.70;;
70052;SDS011;57398;52.032;4.376;2023-07-20T09:53:43;2.03;;;0.65;;
70052;SDS011;57398;52.032;4.376;2023-07-20T09:56:33;1.70;;;0.50;;
70052;SDS011;57398;52.032;4.376;2023-07-20T09:59:23;1.90;;;0.50;;
70052;SDS011;57398;52.032;4.376;2023-07-20T10:02:13;1.95;;;0.60;;
70052;SDS011;57398;52.032;4.376;2023-07-20T10:05:08;2.67;;;0.98;;
70052;SDS011;57398;52.032;4.376;2023-07-20T10:07:58;2.17;;;0.70;;
70052;SDS011;57398;52.032;4.376;2023-07-20T10:10:50;3.47;;;0.60;;
70052;SDS011;57398;52.032;4.376;2023-07-20T10:13:38;2.10;;;0.70;;
70052;SDS011;57398;52.032;4.376;2023-07-20T10:16:31;1.80;;;0.70;;
70052;SDS011;57398;52.032;4.376;2023-07-20T10:19:22;2.40;;;0.80;;
70052;SDS011;57398;52.032;4.376;2023-07-20T10:22:13;2.47;;;0.80;;
70052;SDS011;57398;52.032;4.376;2023-07-20T10:25:04;2.38;;;0.80;;
70052;SDS011;57398;52.032;4.376;2023-07-20T10:27:55;2.20;;;0.87;;
70052;SDS011;57398;52.032;4.376;2023-07-20T10:30:45;2.67;;;1.00;;
70052;SDS011;57398;52.032;4.376;2023-07-20T10:33:35;2.80;;;1.20;;
70052;SDS011;57398;52.032;4.376;2023-07-20T10:36:25;4.00;;;1.23;;
70052;SDS011;57398;52.032;4.376;2023-07-20T10:39:23;2.17;;;0.82;;
70052;SDS011;57398;52.032;4.376;2023-07-20T10:42:14;2.60;;;1.00;;
70052;SDS011;57398;52.032;4.376;2023-07-20T10:45:02;2.10;;;0.77;;
70052;SDS011;57398;52.032;4.376;2023-07-20T10:47:51;2.60;;;0.90;;
70052;SDS011;57398;52.032;4.376;2023-07-20T10:50:44;2.72;;;0.80;;
70052;SDS011;57398;52.032;4.376;2023-07-20T10:53:33;2.05;;;0.70;;
70052;SDS011;57398;52.032;4.376;2023-07-20T10:56:22;2.60;;;1.00;;
70052;SDS011;57398;52.032;4.376;2023-07-20T10:59:17;2.88;;;0.77;;
70052;SDS011;57398;52.032;4.376;2023-07-20T11:02:07;2.63;;;0.80;;
70052;SDS011;57398;52.032;4.376;2023-07-20T11:04:56;3.00;;;0.85;;
70052;SDS011;57398;52.032;4.376;2023-07-20T11:07:46;2.90;;;0.73;;
70052;SDS011;57398;52.032;4.376;2023-07-20T11:10:35;3.63;;;0.90;;
70052;SDS011;57398;52.032;4.376;2023-07-20T11:13:23;2.65;;;0.80;;
70052;SDS011;57398;52.032;4.376;2023-07-20T11:16:13;2.53;;;0.90;;
70052;SDS011;57398;52.032;4.376;2023-07-20T11:19:04;2.10;;;0.80;;
70052;SDS011;57398;52.032;4.376;2023-07-20T11:21:55;2.30;;;0.90;;
70052;SDS011;57398;52.032;4.376;2023-07-20T11:24:50;1.93;;;0.70;;
70052;SDS011;57398;52.032;4.376;2023-07-20T11:27:43;2.78;;;0.80;;
70052;SDS011;57398;52.032;4.376;2023-07-20T11:30:33;2.10;;;0.70;;
70052;SDS011;57398;52.032;4.376;2023-07-20T11:33:22;3.08;;;0.80;;
70052;SDS011;57398;52.032;4.376;2023-07-20T11:36:12;2.88;;;0.80;;
70052;SDS011;57398;52.032;4.376;2023-07-20T11:39:04;2.03;;;0.70;;
70052;SDS011;57398;52.032;4.376;2023-07-20T11:41:57;2.20;;;0.88;;
70052;SDS011;57398;52.032;4.376;2023-07-20T11:44:46;1.90;;;0.70;;
70052;SDS011;57398;52.032;4.376;2023-07-20T11:47:39;2.38;;;0.82;;
70052;SDS011;57398;52.032;4.376;2023-07-20T11:50:29;2.25;;;0.80;;
70052;SDS011;57398;52.032;4.376;2023-07-20T11:53:17;2.80;;;0.90;;
70052;SDS011;57398;52.032;4.376;2023-07-20T11:56:06;2.17;;;0.90;;
70052;SDS011;57398;52.032;4.376;2023-07-20T11:58:56;3.67;;;1.00;;
70052;SDS011;57398;52.032;4.376;2023-07-20T12:01:46;2.08;;;0.80;;
70052;SDS011;57398;52.032;4.376;2023-07-20T12:04:35;2.40;;;1.00;;
70052;SDS011;57398;52.032;4.376;2023-07-20T12:07:25;2.67;;;0.80;;
70052;SDS011;57398;52.032;4.376;2023-07-20T12:10:15;3.30;;;1.00;;
70052;SDS011;57398;52.032;4.376;2023-07-20T12:13:04;2.33;;;0.90;;
70052;SDS011;57398;52.032;4.376;2023-07-20T12:15:53;3.00;;;0.90;;
70052;SDS011;57398;52.032;4.376;2023-07-20T12:18:43;2.53;;;0.90;;
70052;SDS011;57398;52.032;4.376;2023-07-20T12:21:31;2.70;;;1.00;;
70052;SDS011;57398;52.032;4.376;2023-07-20T12:24:22;2.40;;;0.90;;
70052;SDS011;57398;52.032;4.376;2023-07-20T12:27:13;2.45;;;0.90;;
70052;SDS011;57398;52.032;4.376;2023-07-20T12:30:05;1.95;;;0.75;;
70052;SDS011;57398;52.032;4.376;2023-07-20T12:32:55;2.00;;;0.80;;
70052;SDS011;57398;52.032;4.376;2023-07-20T12:35:44;1.90;;;0.67;;
70052;SDS011;57398;52.032;4.376;2023-07-20T12:38:32;1.95;;;0.70;;
70052;SDS011;57398;52.032;4.376;2023-07-20T12:41:20;1.98;;;0.70;;
70052;SDS011;57398;52.032;4.376;2023-07-20T12:44:09;2.08;;;0.75;;
70052;SDS011;57398;52.032;4.376;2023-07-20T12:46:57;2.25;;;0.80;;
70052;SDS011;57398;52.032;4.376;2023-07-20T12:49:46;2.00;;;0.70;;
70052;SDS011;57398;52.032;4.376;2023-07-20T12:52:35;1.90;;;0.60;;
70052;SDS011;57398;52.032;4.376;2023-07-20T12:55:24;2.10;;;0.80;;
70052;SDS011;57398;52.032;4.376;2023-07-20T12:58:13;2.40;;;0.90;;
70052;SDS011;57398;52.032;4.376;2023-07-20T13:01:01;2.08;;;0.80;;
70052;SDS011;57398;52.032;4.376;2023-07-20T13:03:49;2.30;;;0.80;;
70052;SDS011;57398;52.032;4.376;2023-07-20T13:06:41;2.60;;;0.80;;
70052;SDS011;57398;52.032;4.376;2023-07-20T13:09:29;2.53;;;0.80;;
70052;SDS011;57398;52.032;4.376;2023-07-20T13:12:18;2.38;;;0.75;;
70052;SDS011;57398;52.032;4.376;2023-07-20T13:15:07;2.55;;;0.85;;
70052;SDS011;57398;52.032;4.376;2023-07-20T13:17:56;3.60;;;0.93;;
70052;SDS011;57398;52.032;4.376;2023-07-20T13:20:45;2.20;;;0.77;;
70052;SDS011;57398;52.032;4.376;2023-07-20T13:23:35;2.38;;;0.70;;
70052;SDS011;57398;52.032;4.376;2023-07-20T13:26:23;2.17;;;0.88;;
70052;SDS011;57398;52.032;4.376;2023-07-20T13:29:11;2.13;;;0.80;;
70052;SDS011;57398;52.032;4.376;2023-07-20T13:32:00;2.37;;;0.90;;
70052;SDS011;57398;52.032;4.376;2023-07-20T13:34:49;2.28;;;0.90;;
70052;SDS011;57398;52.032;4.376;2023-07-20T13:37:38;1.80;;;0.70;;
70052;SDS011;57398;52.032;4.376;2023-07-20T13:40:28;1.90;;;0.60;;
70052;SDS011;57398;52.032;4.376;2023-07-20T13:43:16;2.88;;;0.80;;
70052;SDS011;57398;52.032;4.376;2023-07-20T13:46:04;3.60;;;0.70;;
70052;SDS011;57398;52.032;4.376;2023-07-20T13:48:53;1.90;;;0.55;;
70052;SDS011;57398;52.032;4.376;2023-07-20T13:51:42;2.60;;;1.00;;
70052;SDS011;57398;52.032;4.376;2023-07-20T13:54:30;1.92;;;0.70;;
70052;SDS011;57398;52.032;4.376;2023-07-20T13:57:20;2.30;;;0.55;;
70052;SDS011;57398;52.032;4.376;2023-07-20T14:00:08;1.77;;;0.60;;
70052;SDS011;57398;52.032;4.376;2023-07-20T14:02:58;1.80;;;0.80;;
70052;SDS011;57398;52.032;4.376;2023-07-20T14:05:49;2.08;;;0.73;;
70052;SDS011;57398;52.032;4.376;2023-07-20T14:08:41;2.08;;;0.70;;
70052;SDS011;57398;52.032;4.376;2023-07-20T14:11:29;2.50;;;0.82;;
70052;SDS011;57398;52.032;4.376;2023-07-20T14:14:21;1.83;;;0.63;;
70052;SDS011;57398;52.032;4.376;2023-07-20T14:17:10;2.33;;;0.70;;
70052;SDS011;57398;52.032;4.376;2023-07-20T14:19:58;2.45;;;0.68;;
70052;SDS011;57398;52.032;4.376;2023-07-20T14:22:46;1.83;;;0.68;;
70052;SDS011;57398;52.032;4.376;2023-07-20T14:25:37;2.05;;;0.75;;
70052;SDS011;57398;52.032;4.376;2023-07-20T14:28:25;2.25;;;0.75;;
70052;SDS011;57398;52.032;4.376;2023-07-20T14:31:14;2.80;;;0.80;;
70052;SDS011;57398;52.032;4.376;2023-07-20T14:34:04;2.28;;;0.77;;
70052;SDS011;57398;52.032;4.376;2023-07-20T14:36:54;2.20;;;0.80;;
70052;SDS011;57398;52.032;4.376;2023-07-20T14:39:42;2.17;;;0.75;;
70052;SDS011;57398;52.032;4.376;2023-07-20T14:42:32;2.20;;;0.90;;
70052;SDS011;57398;52.032;4.376;2023-07-20T14:45:20;2.30;;;0.80;;
70052;SDS011;57398;52.032;4.376;2023-07-20T14:48:09;2.30;;;0.80;;
70052;SDS011;57398;52.032;4.376;2023-07-20T14:50:58;2.00;;;0.70;;
70052;SDS011;57398;52.032;4.376;2023-07-20T14:53:49;2.30;;;0.80;;
70052;SDS011;57398;52.032;4.376;2023-07-20T14:56:37;1.73;;;0.60;;
70052;SDS011;57398;52.032;4.376;2023-07-20T14:59:26;3.40;;;0.90;;
70052;SDS011;57398;52.032;4.376;2023-07-20T15:02:14;2.55;;;0.80;;
70052;SDS011;57398;52.032;4.376;2023-07-20T15:05:06;2.30;;;0.77;;
70052;SDS011;57398;52.032;4.376;2023-07-20T15:07:55;1.83;;;0.70;;
70052;SDS011;57398;52.032;4.376;2023-07-20T15:10:43;2.00;;;0.80;;
70052;SDS011;57398;52.032;4.376;2023-07-20T15:13:32;2.70;;;0.70;;
70052;SDS011;57398;52.032;4.376;2023-07-20T15:16:21;2.17;;;0.80;;
70052;SDS011;57398;52.032;4.376;2023-07-20T15:19:09;2.28;;;0.88;;
70052;SDS011;57398;52.032;4.376;2023-07-20T15:22:01;2.25;;;0.90;;
70052;SDS011;57398;52.032;4.376;2023-07-20T15:24:51;2.55;;;0.85;;
70052;SDS011;57398;52.032;4.376;2023-07-20T15:27:39;2.70;;;0.80;;
70052;SDS011;57398;52.032;4.376;2023-07-20T15:30:33;2.90;;;0.90;;
70052;SDS011;57398;52.032;4.376;2023-07-20T15:33:24;2.20;;;0.90;;
70052;SDS011;57398;52.032;4.376;2023-07-20T15:36:13;2.03;;;0.80;;
70052;SDS011;57398;52.032;4.376;2023-07-20T15:39:02;3.08;;;1.00;;
70052;SDS011;57398;52.032;4.376;2023-07-20T15:41:52;3.13;;;1.00;;
70052;SDS011;57398;52.032;4.376;2023-07-20T15:44:40;2.80;;;1.00;;
70052;SDS011;57398;52.032;4.376;2023-07-20T15:47:28;2.70;;;1.00;;
70052;SDS011;57398;52.032;4.376;2023-07-20T15:50:17;2.63;;;1.10;;
70052;SDS011;57398;52.032;4.376;2023-07-20T15:53:08;2.53;;;1.25;;
70052;SDS011;57398;52.032;4.376;2023-07-20T15:55:57;2.50;;;1.00;;
70052;SDS011;57398;52.032;4.376;2023-07-20T15:58:47;2.65;;;1.00;;
70052;SDS011;57398;52.032;4.376;2023-07-20T16:01:35;2.17;;;0.80;;
70052;SDS011;57398;52.032;4.376;2023-07-20T16:04:25;2.50;;;0.90;;
70052;SDS011;57398;52.032;4.376;2023-07-20T16:07:13;2.20;;;0.82;;
70052;SDS011;57398;52.032;4.376;2023-07-20T16:10:01;2.20;;;0.93;;
70052;SDS011;57398;52.032;4.376;2023-07-20T16:12:51;1.90;;;0.70;;
70052;SDS011;57398;52.032;4.376;2023-07-20T16:15:39;1.90;;;0.80;;
70052;SDS011;57398;52.032;4.376;2023-07-20T16:18:30;2.30;;;0.90;;
70052;SDS011;57398;52.032;4.376;2023-07-20T16:21:18;1.92;;;0.60;;
70052;SDS011;57398;52.032;4.376;2023-07-20T16:24:07;2.30;;;0.70;;
70052;SDS011;57398;52.032;4.376;2023-07-20T16:26:55;2.47;;;0.80;;
70052;SDS011;57398;52.032;4.376;2023-07-20T16:29:45;2.13;;;0.80;;
70052;SDS011;57398;52.032;4.376;2023-07-20T16:32:33;2.30;;;0.80;;
70052;SDS011;57398;52.032;4.376;2023-07-20T16:35:22;2.55;;;0.80;;
70052;SDS011;57398;52.032;4.376;2023-07-20T16:38:30;2.60;;;0.80;;
70052;SDS011;57398;52.032;4.376;2023-07-20T16:41:29;2.63;;;0.80;;
70052;SDS011;57398;52.032;4.376;2023-07-20T16:44:20;2.15;;;0.70;;
70052;SDS011;57398;52.032;4.376;2023-07-20T16:47:09;2.10;;;0.75;;
70052;SDS011;57398;52.032;4.376;2023-07-20T16:49:58;1.90;;;0.70;;
70052;SDS011;57398;52.032;4.376;2023-07-20T16:52:47;2.07;;;0.80;;
70052;SDS011;57398;52.032;4.376;2023-07-20T16:55:35;2.22;;;0.80;;
70052;SDS011;57398;52.032;4.376;2023-07-20T16:58:27;1.70;;;0.70;;
70052;SDS011;57398;52.032;4.376;2023-07-20T17:01:15;2.45;;;0.75;;